Time;durP1;ratioP1;P1;durP2;ratioP2;P2;SDS_P1;SDS_P2;PMS_P1;PMS_P2;Temp;Humidity;BMP_temperature;BMP_pressure;BME280_temperature;BME280_humidity;BME280_pressure;Samples;Min_cycle;Max_cycle;Signal;HPM_P1;HPM_P2
2022/12/18 00:01:19;;;;;;;1.02;1.02;;;-2.60;99.90;;;;;;5113183;28;20127;-83
2022/12/18 00:03:46;;;;;;;0.35;0.35;;;-2.40;99.90;;;;;;5113196;28;20134;-83
2022/12/18 00:06:13;;;;;;;7.88;3.22;;;-2.50;99.90;;;;;;5096368;28;20104;-83
2022/12/18 00:08:40;;;;;;;1.92;1.83;;;-2.20;99.90;;;;;;5113218;28;20101;-83
2022/12/18 00:11:07;;;;;;;7.57;1.67;;;-2.70;99.90;;;;;;5079478;28;20051;-83
2022/12/18 00:13:36;;;;;;;12.13;5.53;;;-2.70;99.90;;;;;;5096080;28;20048;-83
2022/12/18 00:16:11;;;;;;;1.25;1.25;;;-2.70;99.90;;;;;;5112657;28;20043;-82
2022/12/18 00:18:37;;;;;;;1.80;1.52;;;-2.70;99.90;;;;;;5096011;28;20047;-83
2022/12/18 00:21:06;;;;;;;3.20;2.40;;;-2.40;99.90;;;;;;5096038;28;20069;-82
2022/12/18 00:23:38;;;;;;;1.85;1.65;;;-2.70;99.90;;;;;;5096617;28;20160;-82
2022/12/18 00:26:10;;;;;;;2.58;1.40;;;-2.80;99.90;;;;;;5095979;28;20051;-82
2022/12/18 00:28:36;;;;;;;3.20;1.67;;;-2.80;99.90;;;;;;5112907;28;20054;-83
2022/12/18 00:31:07;;;;;;;2.65;2.42;;;-2.90;99.90;;;;;;5115410;28;20513;-83
2022/12/18 00:33:34;;;;;;;3.53;3.30;;;-2.90;99.90;;;;;;5116539;28;20504;-83
2022/12/18 00:36:09;;;;;;;1.70;1.60;;;-3.00;99.90;;;;;;5099408;28;20406;-83
2022/12/18 00:38:37;;;;;;;2.92;2.65;;;-3.00;92.20;;;;;;5099567;28;20093;-83
2022/12/18 00:41:03;;;;;;;4.13;2.78;;;-3.10;92.00;;;;;;5099315;28;20065;-83
2022/12/18 00:43:29;;;;;;;3.20;2.90;;;-3.10;91.90;;;;;;5116441;28;20044;-83
2022/12/18 00:45:55;;;;;;;7.15;3.47;;;-3.20;91.70;;;;;;5082773;28;20187;-83
2022/12/18 00:48:21;;;;;;;2.38;1.65;;;-2.90;91.80;;;;;;5098982;28;20040;-83
2022/12/18 00:50:49;;;;;;;1.55;1.45;;;-3.10;91.70;;;;;;5099231;28;20047;-83
2022/12/18 00:53:17;;;;;;;2.78;2.25;;;-3.30;91.80;;;;;;5098858;28;20043;-83
2022/12/18 00:55:43;;;;;;;1.75;1.33;;;-3.30;91.80;;;;;;5115858;28;20082;-83
2022/12/18 00:58:11;;;;;;;6.72;2.72;;;-3.30;91.90;;;;;;5082347;28;20050;-83
2022/12/18 01:00:37;;;;;;;1.67;1.58;;;-3.00;91.80;;;;;;5099276;28;20079;-83
2022/12/18 01:03:04;;;;;;;12.45;0.93;;;-3.40;91.70;;;;;;5099258;28;20126;-82
2022/12/18 01:05:30;;;;;;;1.75;1.63;;;-3.50;91.50;;;;;;5099457;28;20121;-83
2022/12/18 01:07:56;;;;;;;2.30;2.00;;;-3.40;91.70;;;;;;5099193;27;20046;-83
2022/12/18 01:10:23;;;;;;;20.92;2.20;;;-3.50;91.70;;;;;;5119598;27;20081;-83
2022/12/18 01:12:49;;;;;;;2.35;2.22;;;-3.40;92.00;;;;;;5086012;27;20138;-83
2022/12/18 01:15:15;;;;;;;1.02;1.02;;;-3.60;92.00;;;;;;5085998;27;20138;-82
2022/12/18 01:17:41;;;;;;;5.30;2.00;;;-3.60;92.00;;;;;;5102753;27;20116;-80
2022/12/18 01:20:08;;;;;;;1.17;0.88;;;-3.60;92.10;;;;;;5103061;27;20078;-81
2022/12/18 01:22:35;;;;;;;2.45;1.80;;;-3.60;91.80;;;;;;5102184;27;20043;-82
2022/12/18 01:25:01;;;;;;;1.17;1.17;;;-3.60;91.50;;;;;;5102427;27;20039;-81
2022/12/18 01:27:29;;;;;;;1.17;1.15;;;-3.60;91.40;;;;;;5102385;27;20047;-81
2022/12/18 01:29:55;;;;;;;0.50;0.50;;;-3.70;91.30;;;;;;5119420;27;20039;-82
2022/12/18 01:32:23;;;;;;;3.50;2.17;;;-3.70;90.90;;;;;;5119012;27;20191;-82
2022/12/18 01:34:50;;;;;;;1.45;1.10;;;-3.30;90.90;;;;;;5102091;27;20074;-81
2022/12/18 01:37:16;;;;;;;0.95;0.90;;;-3.80;90.60;;;;;;5102118;27;20442;-83
2022/12/18 01:39:42;;;;;;;0.75;0.75;;;-3.80;90.60;;;;;;5102026;27;20068;-81
2022/12/18 01:42:15;;;;;;;1.45;1.45;;;-3.80;90.50;;;;;;5085633;27;20087;-82
2022/12/18 01:44:54;;;;;;;8.02;1.35;;;-3.80;90.20;;;;;;5119342;27;20089;-82
2022/12/18 01:47:42;;;;;;;2.78;1.75;;;-3.80;90.10;;;;;;5102060;27;20130;-82
2022/12/18 01:50:27;;;;;;;0.32;0.32;;;-3.80;89.20;;;;;;5119839;27;20394;-82
2022/12/18 01:53:06;;;;;;;0.75;0.73;;;-3.80;88.60;;;;;;5102870;27;20501;-82
2022/12/18 01:55:40;;;;;;;0.77;0.77;;;-3.90;87.70;;;;;;5105782;27;20446;-82
2022/12/18 01:58:06;;;;;;;1.17;1.07;;;-3.90;87.50;;;;;;5138702;27;20054;-81
2022/12/18 02:00:32;;;;;;;10.32;0.65;;;-4.00;88.10;;;;;;5093081;27;20055;-82
2022/12/18 02:02:57;;;;;;;3.85;1.95;;;-4.00;87.80;;;;;;5118841;27;20047;-82
2022/12/18 02:05:39;;;;;;;1.67;1.38;;;-4.00;87.50;;;;;;5101899;27;20051;-82
2022/12/18 02:08:21;;;;;;;2.00;1.45;;;-4.20;85.60;;;;;;5118479;27;20035;-82
2022/12/18 02:11:12;;;;;;;8.65;2.60;;;-4.20;86.10;;;;;;5118406;27;20120;-82
2022/12/18 02:13:47;;;;;;;3.08;2.92;;;-4.20;86.40;;;;;;5101669;27;20047;-82
2022/12/18 02:16:49;;;;;;;1.90;0.98;;;-4.30;86.70;;;;;;5101921;27;20050;-82
2022/12/18 02:19:39;;;;;;;2.03;1.75;;;-4.30;87.00;;;;;;5100888;28;20491;-82
2022/12/18 02:22:35;;;;;;;1.95;1.15;;;-4.20;86.60;;;;;;5118561;27;20047;-81
2022/12/18 02:25:33;;;;;;;0.38;0.38;;;-4.30;85.30;;;;;;5118632;27;20104;-81
2022/12/18 02:28:04;;;;;;;1.00;0.82;;;-4.30;84.50;;;;;;5101178;27;20065;-81
2022/12/18 02:30:32;;;;;;;3.78;2.20;;;-4.30;83.80;;;;;;5118624;27;20050;-82
2022/12/18 02:33:00;;;;;;;1.77;1.67;;;-4.40;82.70;;;;;;5100933;27;20062;-82
2022/12/18 02:35:29;;;;;;;0.32;0.32;;;-4.50;81.40;;;;;;5101016;27;20054;-81
2022/12/18 02:37:56;;;;;;;1.23;1.20;;;-4.50;80.20;;;;;;5100778;27;20098;-82
2022/12/18 02:40:26;;;;;;;0.60;0.57;;;-4.40;79.10;;;;;;5101243;27;20053;-82
2022/12/18 02:42:51;;;;;;;6.13;1.65;;;-4.60;78.80;;;;;;5117791;27;20443;-81
2022/12/18 02:45:17;;;;;;;1.50;1.10;;;-4.60;77.50;;;;;;5084144;27;20076;-82
2022/12/18 02:47:47;;;;;;;1.55;1.25;;;-4.70;78.40;;;;;;5100569;27;20043;-81
2022/12/18 02:50:25;;;;;;;0.90;0.90;;;-4.60;78.30;;;;;;5117889;27;20050;-81
2022/12/18 02:53:01;;;;;;;0.43;0.43;;;-4.70;77.70;;;;;;5100157;27;20047;-82
2022/12/18 02:55:51;;;;;;;0.98;0.98;;;-4.80;77.40;;;;;;5100973;27;20107;-82
2022/12/18 02:58:54;;;;;;;2.75;1.33;;;-4.90;77.00;;;;;;5100795;27;20073;-82
2022/12/18 03:01:21;;;;;;;3.13;1.23;;;-5.00;76.80;;;;;;5101469;27;20039;-82
2022/12/18 03:03:58;;;;;;;1.65;1.55;;;-5.00;76.20;;;;;;5117573;27;20180;-81
2022/12/18 03:06:28;;;;;;;0.40;0.40;;;-5.00;76.60;;;;;;5117593;27;20047;-81
2022/12/18 03:08:59;;;;;;;2.58;1.60;;;-5.00;76.20;;;;;;5100722;27;20046;-81
2022/12/18 03:14:16;;;;;;;1.67;1.52;;;-5.00;75.00;;;;;;5117661;27;20050;-82
2022/12/18 03:16:43;;;;;;;1.17;0.40;;;-5.00;76.10;;;;;;5117299;27;20380;-83
2022/12/18 03:19:15;;;;;;;1.35;1.30;;;-4.90;75.80;;;;;;5100367;27;20051;-82
2022/12/18 03:21:50;;;;;;;2.15;1.67;;;-5.00;75.20;;;;;;5100887;27;20050;-82
2022/12/18 03:24:18;;;;;;;0.90;0.90;;;-5.00;73.80;;;;;;5100144;27;20058;-83
2022/12/18 03:26:47;;;;;;;1.20;0.57;;;-4.60;73.70;;;;;;5100315;27;20130;-83
2022/12/18 03:29:19;;;;;;;3.70;2.15;;;-5.00;74.10;;;;;;5117180;27;20074;-82
2022/12/18 03:31:54;;;;;;;0.22;0.22;;;-5.00;74.10;;;;;;5099550;27;20498;-82
2022/12/18 03:34:26;;;;;;;1.40;1.25;;;-5.10;74.10;;;;;;5099938;27;20051;-82
2022/12/18 03:36:52;;;;;;;14.00;1.48;;;-5.10;74.10;;;;;;5100107;27;20428;-82
2022/12/18 03:39:19;;;;;;;1.85;1.80;;;-5.10;72.50;;;;;;5083321;27;20054;-82
2022/12/18 03:41:55;;;;;;;0.55;0.55;;;-5.10;72.50;;;;;;5087776;28;20051;-82
2022/12/18 03:44:38;;;;;;;1.70;1.60;;;-5.20;70.80;;;;;;5079679;28;20043;-82
2022/12/18 03:47:16;;;;;;;0.43;0.43;;;-5.20;71.00;;;;;;5096246;28;20047;-82
2022/12/18 03:50:11;;;;;;;1.52;0.90;;;-5.20;71.80;;;;;;5079466;28;20112;-82
2022/12/18 03:52:43;;;;;;;2.25;1.80;;;-5.20;70.50;;;;;;5090755;28;20494;-82
2022/12/18 03:55:09;;;;;;;1.40;1.20;;;-5.30;67.90;;;;;;5096271;28;20040;-81
2022/12/18 03:57:36;;;;;;;0.85;0.85;;;-5.30;67.80;;;;;;5079496;28;20484;-81
2022/12/18 04:00:13;;;;;;;1.05;1.05;;;-5.30;68.50;;;;;;5079437;28;20068;-81
2022/12/18 04:02:44;;;;;;;0.52;0.52;;;-5.30;67.20;;;;;;5079510;28;20092;-82
2022/12/18 04:05:11;;;;;;;0.70;0.70;;;-5.30;67.00;;;;;;5079537;28;20048;-81
2022/12/18 04:07:38;;;;;;;0.68;0.38;;;-5.30;67.20;;;;;;5095717;28;20036;-81
2022/12/18 04:10:06;;;;;;;6.18;2.17;;;-5.30;67.90;;;;;;5079178;28;20487;-81
2022/12/18 04:12:32;;;;;;;0.03;0.03;;;-5.30;68.80;;;;;;5096189;28;20052;-82
2022/12/18 04:14:57;;;;;;;0.15;0.15;;;-5.30;67.70;;;;;;5096107;28;20051;-82
2022/12/18 04:17:23;;;;;;;0.30;0.30;;;-5.30;66.40;;;;;;5079479;28;20040;-81
2022/12/18 04:19:49;;;;;;;1.08;0.35;;;-5.40;64.50;;;;;;5046124;28;20092;-82
2022/12/18 04:22:15;;;;;;;0.32;0.30;;;-5.40;64.10;;;;;;5062661;28;20394;-82
2022/12/18 04:24:41;;;;;;;1.15;0.93;;;-5.40;63.50;;;;;;5079112;28;20043;-81
2022/12/18 04:27:07;;;;;;;0.20;0.20;;;-5.50;61.70;;;;;;5079068;28;20387;-82
2022/12/18 04:29:32;;;;;;;4.40;1.75;;;-5.50;62.60;;;;;;5079241;28;20188;-82
2022/12/18 04:31:58;;;;;;;0.10;0.10;;;-5.40;63.10;;;;;;5045085;28;20105;-82
2022/12/18 04:34:24;;;;;;;0.38;0.38;;;-5.40;65.40;;;;;;5062313;28;20059;-82
2022/12/18 04:36:50;;;;;;;0.10;0.10;;;-5.30;66.20;;;;;;5095724;28;20047;-82
2022/12/18 04:39:15;;;;;;;1.10;0.90;;;-5.30;65.30;;;;;;5095404;28;20126;-82
2022/12/18 04:41:41;;;;;;;0.20;0.20;;;-5.30;65.40;;;;;;5045886;28;20039;-82
2022/12/18 04:44:07;;;;;;;1.80;1.23;;;-5.30;65.20;;;;;;5064663;28;20035;-82
2022/12/18 04:46:32;;;;;;;3.05;1.67;;;-5.30;64.40;;;;;;5082974;28;20126;-83
2022/12/18 04:48:58;;;;;;;4.50;2.20;;;-5.30;63.80;;;;;;5066832;28;20130;-82
2022/12/18 04:51:24;;;;;;;0.73;0.30;;;-5.30;63.80;;;;;;5066079;28;20612;-82
2022/12/18 04:53:49;;;;;;;1.42;1.10;;;-5.30;61.90;;;;;;5066039;28;20047;-82
2022/12/18 04:56:15;;;;;;;0.63;0.20;;;-5.30;61.40;;;;;;5082873;28;20392;-82
2022/12/18 04:58:43;;;;;;;0.55;0.55;;;-5.40;61.20;;;;;;5066248;28;20051;-82
2022/12/18 05:01:10;;;;;;;0.35;0.35;;;-5.50;58.10;;;;;;5082669;28;20075;-81
2022/12/18 05:03:36;;;;;;;1.20;1.20;;;-5.50;58.00;;;;;;5099525;28;20055;-81
2022/12/18 05:06:03;;;;;;;2.13;1.38;;;-5.50;58.50;;;;;;5099381;28;20234;-82
2022/12/18 05:08:31;;;;;;;0.25;0.25;;;-5.50;58.00;;;;;;5099124;28;20399;-82
2022/12/18 05:11:06;;;;;;;0.35;0.35;;;-5.60;55.30;;;;;;5099463;28;20062;-82
2022/12/18 05:13:33;;;;;;;0.20;0.10;;;-5.60;54.20;;;;;;5082542;28;20052;-82
2022/12/18 05:15:59;;;;;;;0.63;0.57;;;-5.60;54.00;;;;;;5099297;28;20040;-81
2022/12/18 05:18:25;;;;;;;3.20;1.95;;;-5.70;54.00;;;;;;5082422;28;20083;-82
2022/12/18 05:20:52;;;;;;;0.10;0.10;;;-5.60;55.30;;;;;;5065976;28;20043;-82
2022/12/18 05:23:19;;;;;;;4.20;3.65;;;-5.60;54.60;;;;;;5065625;28;20044;-82
2022/12/18 05:25:53;;;;;;;0.93;0.80;;;-5.60;53.80;;;;;;5065880;28;20079;-81
2022/12/18 05:28:19;;;;;;;1.00;1.00;;;-5.70;53.40;;;;;;5099004;28;20096;-81
2022/12/18 05:30:50;;;;;;;1.08;1.08;;;-5.70;55.10;;;;;;5082189;28;20530;-81
2022/12/18 05:33:16;;;;;;;0.75;0.75;;;-5.70;53.60;;;;;;5065263;28;20104;-81
2022/12/18 05:35:42;;;;;;;0.57;0.57;;;-5.70;56.40;;;;;;5065533;28;20051;-81
2022/12/18 05:38:08;;;;;;;1.60;1.33;;;-5.70;55.50;;;;;;5081974;28;20040;-81
2022/12/18 05:40:34;;;;;;;0.38;0.38;;;-5.70;49.70;;;;;;5081954;28;20051;-82
2022/12/18 05:42:59;;;;;;;0.38;0.38;;;-5.70;52.60;;;;;;5080902;28;20127;-81
2022/12/18 05:45:25;;;;;;;0.35;0.35;;;-5.80;50.50;;;;;;5081915;28;20051;-82
2022/12/18 05:47:51;;;;;;;0.05;0.05;;;-5.80;52.60;;;;;;5064775;28;20044;-82
2022/12/18 05:50:16;;;;;;;11.52;0.85;;;-5.80;51.80;;;;;;5098765;28;20048;-82
2022/12/18 05:52:42;;;;;;;0.50;0.50;;;-5.80;50.60;;;;;;5064745;28;20436;-82
2022/12/18 05:55:08;;;;;;;0.20;0.20;;;-5.70;52.90;;;;;;5081679;28;20044;-82
2022/12/18 05:57:33;;;;;;;0.65;0.65;;;-5.90;53.40;;;;;;5081517;28;20391;-82
2022/12/18 05:59:59;;;;;;;0.52;0.52;;;-5.80;53.50;;;;;;5081762;28;20128;-81
2022/12/18 06:02:25;;;;;;;1.17;0.80;;;-5.80;51.60;;;;;;5081640;28;20182;-82
2022/12/18 06:04:51;;;;;;;0.00;0.00;;;-5.90;49.30;;;;;;5081968;28;20043;-82
2022/12/18 06:07:17;;;;;;;1.80;0.85;;;-6.00;46.00;;;;;;5081370;28;20048;-82
2022/12/18 06:09:42;;;;;;;2.22;2.05;;;-5.90;45.00;;;;;;5081943;28;20376;-81
2022/12/18 06:12:08;;;;;;;0.47;0.47;;;-6.00;45.10;;;;;;5098688;28;20097;-81
2022/12/18 06:14:34;;;;;;;0.38;0.38;;;-5.90;48.00;;;;;;5098264;28;20399;-82
2022/12/18 06:16:59;;;;;;;0.43;0.43;;;-5.90;47.40;;;;;;5097997;28;20092;-81
2022/12/18 06:19:28;;;;;;;0.00;0.00;;;-5.90;48.70;;;;;;5082191;28;20096;-81
2022/12/18 06:21:58;;;;;;;2.75;0.52;;;-5.90;51.70;;;;;;5098216;28;20043;-81
2022/12/18 06:24:24;;;;;;;1.13;0.55;;;-5.90;54.80;;;;;;5064817;28;20044;-81
2022/12/18 06:26:50;;;;;;;0.20;0.20;;;-5.80;52.90;;;;;;5047612;28;20036;-81
2022/12/18 06:29:15;;;;;;;0.30;0.30;;;-5.00;52.10;;;;;;5064503;28;20451;-81
2022/12/18 06:31:41;;;;;;;0.57;0.57;;;-5.80;49.30;;;;;;5060480;28;20051;-81
2022/12/18 06:34:07;;;;;;;0.55;0.55;;;-5.80;50.30;;;;;;5077691;28;20169;-82
2022/12/18 06:36:32;;;;;;;0.55;0.47;;;-5.80;48.70;;;;;;5077735;28;20105;-82
2022/12/18 06:38:59;;;;;;;0.10;0.10;;;-5.80;49.10;;;;;;5078048;28;20046;-82
2022/12/18 06:41:25;;;;;;;0.13;0.13;;;-5.80;48.40;;;;;;5077870;28;20051;-82
2022/12/18 06:43:50;;;;;;;0.00;0.00;;;-5.80;47.30;;;;;;5078102;28;20043;-82
2022/12/18 06:46:16;;;;;;;0.47;0.47;;;-5.80;48.10;;;;;;5071652;28;20060;-81
2022/12/18 06:48:42;;;;;;;1.20;0.35;;;-5.80;46.40;;;;;;5091320;28;20043;-82
2022/12/18 06:51:08;;;;;;;0.85;0.85;;;-5.80;46.70;;;;;;5099907;28;20044;-82
2022/12/18 06:53:34;;;;;;;0.65;0.65;;;-5.70;47.20;;;;;;5094248;28;20070;-82
2022/12/18 06:56:04;;;;;;;1.85;1.73;;;-5.70;45.50;;;;;;5076978;28;20055;-82
2022/12/18 06:58:30;;;;;;;0.47;0.45;;;-5.70;44.50;;;;;;5077582;28;20040;-82
2022/12/18 07:01:07;;;;;;;1.08;1.08;;;-5.80;42.70;;;;;;5059636;28;20047;-82
2022/12/18 07:03:33;;;;;;;1.58;1.48;;;-5.80;43.70;;;;;;5093978;28;20040;-82
2022/12/18 07:05:59;;;;;;;0.32;0.32;;;-5.70;44.60;;;;;;5076758;28;20510;-82
2022/12/18 07:08:25;;;;;;;1.35;1.13;;;-5.70;42.80;;;;;;5076668;28;20476;-82
2022/12/18 07:10:51;;;;;;;0.30;0.30;;;-5.80;42.30;;;;;;5076517;28;20052;-82
2022/12/18 07:13:17;;;;;;;0.10;0.10;;;-5.80;41.90;;;;;;5076537;28;20044;-82
2022/12/18 07:15:43;;;;;;;0.45;0.45;;;-5.90;40.20;;;;;;5076717;28;20442;-82
2022/12/18 07:18:09;;;;;;;2.13;1.50;;;-5.80;40.70;;;;;;5093281;28;20051;-81
2022/12/18 07:20:35;;;;;;;3.72;1.92;;;-5.90;41.50;;;;;;5076438;28;20044;-81
2022/12/18 07:23:05;;;;;;;0.45;0.45;;;-5.90;41.30;;;;;;5059527;28;20044;-81
2022/12/18 07:25:37;;;;;;;0.00;0.00;;;-5.90;40.90;;;;;;5093352;28;20127;-81
2022/12/18 07:28:03;;;;;;;0.52;0.52;;;-5.90;40.90;;;;;;5093553;28;20109;-81
2022/12/18 07:30:29;;;;;;;1.75;1.65;;;-5.80;42.30;;;;;;5093158;28;20044;-81
2022/12/18 07:32:54;;;;;;;0.03;0.03;;;-5.80;40.00;;;;;;5076100;28;20063;-81
2022/12/18 07:35:20;;;;;;;1.75;1.50;;;-5.80;39.60;;;;;;5076466;28;20051;-81
2022/12/18 07:37:46;;;;;;;6.18;2.92;;;-5.90;39.40;;;;;;5059823;28;20062;-80
2022/12/18 07:40:12;;;;;;;0.68;0.65;;;-5.80;38.90;;;;;;5059607;28;20052;-81
2022/12/18 07:42:38;;;;;;;1.75;1.65;;;-5.80;37.60;;;;;;5092642;28;20055;-81
2022/12/18 07:45:04;;;;;;;1.75;1.27;;;-5.80;37.10;;;;;;5092781;28;20051;-81
2022/12/18 07:47:30;;;;;;;2.33;2.22;;;-5.80;36.10;;;;;;5092881;28;20044;-81
2022/12/18 07:49:55;;;;;;;3.60;0.73;;;-5.80;35.90;;;;;;5093008;28;20048;-81
2022/12/18 07:52:21;;;;;;;0.25;0.25;;;-5.80;35.50;;;;;;5076205;28;20460;-82
2022/12/18 07:54:58;;;;;;;0.00;0.00;;;-5.80;35.10;;;;;;5075719;28;20040;-84
2022/12/18 07:57:24;;;;;;;1.20;1.20;;;-5.70;33.90;;;;;;5076586;28;20127;-80
2022/12/18 07:59:49;;;;;;;0.57;0.57;;;-5.70;33.40;;;;;;5076141;28;20555;-81
2022/12/18 08:02:15;;;;;;;1.45;0.95;;;-5.70;32.30;;;;;;5076363;28;20063;-81
2022/12/18 08:04:41;;;;;;;0.38;0.38;;;-5.60;31.60;;;;;;5059236;28;20541;-80
2022/12/18 08:07:06;;;;;;;2.70;0.65;;;-5.60;29.70;;;;;;5075905;28;20043;-80
2022/12/18 08:09:32;;;;;;;0.80;0.80;;;-5.60;29.00;;;;;;5059018;28;20044;-79
2022/12/18 08:11:58;;;;;;;0.28;0.28;;;-5.60;28.10;;;;;;5076346;28;20101;-80
2022/12/18 08:14:24;;;;;;;1.60;1.58;;;-5.40;27.30;;;;;;5076034;28;20150;-80
2022/12/18 08:16:50;;;;;;;0.03;0.03;;;-5.50;27.30;;;;;;5092757;28;20056;-80
2022/12/18 08:19:15;;;;;;;1.42;1.35;;;-5.30;27.20;;;;;;5078910;28;20047;-80
2022/12/18 08:21:41;;;;;;;0.30;0.30;;;-5.40;25.50;;;;;;5097287;28;20138;-81
2022/12/18 08:24:08;;;;;;;0.70;0.70;;;-5.00;23.50;;;;;;5079701;28;20040;-83
2022/12/18 08:26:34;;;;;;;0.40;0.40;;;-5.30;22.80;;;;;;5096903;28;20399;-83
2022/12/18 08:29:00;;;;;;;0.40;0.40;;;-5.10;22.80;;;;;;5096737;28;20130;-83
2022/12/18 08:31:28;;;;;;;2.17;1.52;;;-5.10;23.00;;;;;;5062595;28;20057;-82
2022/12/18 08:33:54;;;;;;;0.35;0.35;;;-5.10;22.50;;;;;;5096633;28;20048;-82
2022/12/18 08:36:21;;;;;;;2.63;0.55;;;-5.00;19.60;;;;;;5079625;28;20052;-82
2022/12/18 08:38:47;;;;;;;0.98;0.98;;;-5.00;18.80;;;;;;5062928;28;20052;-82
2022/12/18 08:41:15;;;;;;;0.68;0.68;;;-4.90;17.50;;;;;;5096801;28;20044;-82
2022/12/18 08:46:27;;;;;;;0.40;0.40;;;-4.90;13.00;;;;;;5096572;28;20052;-82
2022/12/18 08:48:55;;;;;;;0.30;0.30;;;-4.80;14.40;;;;;;5079538;28;20079;-82
2022/12/18 08:51:21;;;;;;;1.45;0.57;;;-4.70;16.90;;;;;;5079240;28;20055;-82
2022/12/18 08:53:47;;;;;;;1.00;1.00;;;-4.40;15.90;;;;;;5062496;28;20044;-82
2022/12/18 08:56:14;;;;;;;1.20;0.90;;;-4.00;19.00;;;;;;5079410;28;20097;-82
2022/12/18 08:58:40;;;;;;;0.80;0.80;;;-3.50;20.20;;;;;;5096643;28;20400;-82
2022/12/18 09:01:11;;;;;;;0.00;0.00;;;-3.10;1.00;;;;;;5096184;28;20094;-82
2022/12/18 09:03:37;;;;;;;0.00;0.00;;;-2.90;1.00;;;;;;5096132;28;20075;-82
2022/12/18 09:06:04;;;;;;;0.10;0.10;;;-2.80;1.00;;;;;;5079031;28;20058;-82
2022/12/18 09:08:30;;;;;;;0.43;0.43;;;-2.70;1.00;;;;;;5078857;28;20557;-82
2022/12/18 09:10:56;;;;;;;1.45;1.20;;;-2.60;1.00;;;;;;5062726;28;20056;-82
2022/12/18 09:13:22;;;;;;;0.45;0.30;;;-2.50;1.00;;;;;;5096067;28;20484;-82
2022/12/18 09:15:52;;;;;;;0.82;0.63;;;-2.30;1.00;;;;;;5095794;28;20495;-82
2022/12/18 09:18:20;;;;;;;2.63;1.27;;;-2.30;1.00;;;;;;5078785;28;20044;-82
2022/12/18 09:20:46;;;;;;;3.30;2.20;;;-2.40;1.00;;;;;;5095689;28;20047;-82
2022/12/18 09:23:12;;;;;;;0.30;0.30;;;-2.50;1.00;;;;;;5078370;28;20044;-82
2022/12/18 09:25:39;;;;;;;5.68;2.30;;;-2.60;1.00;;;;;;5095508;28;20496;-81
2022/12/18 09:28:14;;;;;;;0.03;0.03;;;-2.50;1.00;;;;;;5078541;28;20040;-82
2022/12/18 09:30:49;;;;;;;0.30;0.30;;;-2.10;1.00;;;;;;5078267;28;20055;-82
2022/12/18 09:33:16;;;;;;;0.35;0.35;;;-1.60;1.00;;;;;;5061752;28;20102;-82
2022/12/18 09:35:44;;;;;;;0.63;0.63;;;-1.30;1.00;;;;;;5095777;28;20056;-82
2022/12/18 09:38:16;;;;;;;0.45;0.35;;;-0.80;1.00;;;;;;5095496;28;20134;-82
2022/12/18 09:40:47;;;;;;;0.32;0.32;;;-0.40;1.00;;;;;;5078567;28;20507;-82
2022/12/18 09:43:20;;;;;;;1.08;1.05;;;0.00;1.00;;;;;;5095160;28;20048;-82
2022/12/18 09:45:52;;;;;;;0.52;0.52;;;0.10;99.90;;;;;;5095251;28;20044;-81
2022/12/18 09:48:40;;;;;;;0.20;0.20;;;0.10;99.90;;;;;;5095136;28;20514;-82
2022/12/18 09:51:24;;;;;;;0.32;0.32;;;-0.20;99.90;;;;;;5078692;28;20059;-82
2022/12/18 09:54:04;;;;;;;4.47;0.73;;;-0.40;99.90;;;;;;5094517;28;20101;-82
2022/12/18 09:56:36;;;;;;;0.05;0.05;;;-0.40;99.90;;;;;;5095216;28;20173;-82
2022/12/18 09:59:04;;;;;;;1.38;1.27;;;-0.40;99.90;;;;;;5095583;28;20127;-81
2022/12/18 10:01:31;;;;;;;5.25;1.45;;;-0.20;99.90;;;;;;5078203;28;20047;-82
2022/12/18 10:04:07;;;;;;;1.58;0.50;;;-0.20;99.90;;;;;;5095009;28;20181;-83
2022/12/18 10:06:58;;;;;;;0.00;0.00;;;-0.40;99.90;;;;;;5095941;28;20052;-84
2022/12/18 10:09:36;;;;;;;0.75;0.75;;;-0.50;99.90;;;;;;5078243;28;20173;-82
2022/12/18 10:12:18;;;;;;;0.00;0.00;;;-0.60;99.90;;;;;;5078225;28;20036;-82
2022/12/18 10:14:56;;;;;;;0.10;0.10;;;-0.40;99.90;;;;;;5077744;28;20052;-82
2022/12/18 10:17:51;;;;;;;0.57;0.55;;;-0.20;99.90;;;;;;5077925;28;20048;-82
2022/12/18 10:20:43;;;;;;;4.55;2.17;;;-0.30;99.90;;;;;;5091253;28;20131;-82
2022/12/18 10:23:53;;;;;;;1.35;0.52;;;-0.60;99.90;;;;;;5056032;28;20063;-82
2022/12/18 10:26:27;;;;;;;1.17;0.73;;;-0.70;99.90;;;;;;5072858;28;20040;-81
2022/12/18 10:28:54;;;;;;;0.25;0.25;;;-0.90;99.90;;;;;;5061186;28;20041;-82
2022/12/18 10:31:23;;;;;;;0.00;0.00;;;-0.90;99.90;;;;;;5084690;28;20056;-82
2022/12/18 10:33:48;;;;;;;0.03;0.03;;;-1.00;99.90;;;;;;5060615;28;20077;-82
2022/12/18 10:36:14;;;;;;;0.00;0.00;;;-1.10;99.90;;;;;;5077590;28;20426;-83
2022/12/18 10:38:40;;;;;;;1.02;0.75;;;-1.20;99.90;;;;;;5044341;28;20554;-82
2022/12/18 10:41:27;;;;;;;1.55;0.75;;;-1.20;99.90;;;;;;5076255;28;20052;-82
2022/12/18 10:44:24;;;;;;;1.23;0.40;;;-1.20;1.00;;;;;;5060502;28;20040;-82
2022/12/18 10:46:55;;;;;;;0.75;0.55;;;-1.30;1.00;;;;;;5060683;28;20108;-82
2022/12/18 10:49:31;;;;;;;1.40;0.57;;;-1.30;1.00;;;;;;5060603;28;20044;-82
2022/12/18 10:52:18;;;;;;;0.65;0.65;;;-1.30;1.00;;;;;;5076988;28;20127;-82
2022/12/18 10:54:58;;;;;;;0.10;0.10;;;-1.40;1.00;;;;;;5060131;28;20048;-82
2022/12/18 10:57:35;;;;;;;0.40;0.40;;;-1.40;1.00;;;;;;5060340;28;20046;-82
2022/12/18 11:00:30;;;;;;;0.13;0.13;;;-1.50;1.00;;;;;;5060299;28;20044;-81
2022/12/18 11:02:56;;;;;;;0.00;0.00;;;-1.40;1.00;;;;;;5076746;28;20108;-82
2022/12/18 11:05:31;;;;;;;0.60;0.60;;;-1.40;1.00;;;;;;5060500;28;20047;-82
2022/12/18 11:07:59;;;;;;;0.00;0.00;;;-1.40;1.00;;;;;;5076466;28;20044;-82
2022/12/18 11:10:33;;;;;;;0.00;0.00;;;-1.40;1.00;;;;;;5076708;28;20113;-82
2022/12/18 11:13:20;;;;;;;1.25;0.85;;;-1.40;1.00;;;;;;5060001;28;20048;-82
2022/12/18 11:15:46;;;;;;;0.32;0.32;;;-1.40;1.00;;;;;;5076768;28;20491;-82
2022/12/18 11:18:31;;;;;;;0.17;0.17;;;-1.40;1.00;;;;;;5059875;28;20052;-82
2022/12/18 11:21:11;;;;;;;0.30;0.30;;;-1.30;1.00;;;;;;5076573;28;20052;-82
2022/12/18 11:23:44;;;;;;;0.00;0.00;;;-1.30;1.00;;;;;;5067724;28;20055;-82
2022/12/18 11:26:10;;;;;;;0.00;0.00;;;-1.30;1.00;;;;;;5079675;28;20047;-82
2022/12/18 11:28:51;;;;;;;0.47;0.47;;;-1.20;1.00;;;;;;5096430;28;20124;-82
2022/12/18 11:31:31;;;;;;;0.00;0.00;;;-1.20;1.00;;;;;;5096448;28;20083;-82
2022/12/18 11:34:31;;;;;;;0.00;0.00;;;-1.10;1.00;;;;;;5131899;27;20112;-81
2022/12/18 11:37:00;;;;;;;0.10;0.08;;;-1.00;1.00;;;;;;5110630;28;20059;-81
2022/12/18 11:39:44;;;;;;;0.03;0.03;;;-1.00;1.00;;;;;;5093572;28;20044;-81
2022/12/18 11:42:22;;;;;;;0.00;0.00;;;-0.90;1.00;;;;;;5093847;28;20399;-82
2022/12/18 11:45:18;;;;;;;0.00;0.00;;;-0.90;1.00;;;;;;5111379;28;20079;-81
2022/12/18 11:48:00;;;;;;;0.32;0.32;;;-0.40;1.00;;;;;;5084080;28;20060;-80
2022/12/18 11:50:53;;;;;;;0.10;0.10;;;-0.90;1.00;;;;;;5115651;28;20500;-82
2022/12/18 11:53:19;;;;;;;0.65;0.65;;;-0.90;1.00;;;;;;5100050;28;20107;-79
2022/12/18 11:56:05;;;;;;;0.28;0.28;;;-0.90;1.00;;;;;;5123254;28;20051;-82
2022/12/18 11:59:01;;;;;;;0.20;0.20;;;-0.90;1.00;;;;;;5112489;28;20498;-82
2022/12/18 12:01:45;;;;;;;;;;;-0.90;1.00;;;;;;5093899;28;20075;-82
2022/12/18 12:04:33;;;;;;;0.00;0.00;;;-0.90;1.00;;;;;;5098480;28;19942;-82
2022/12/18 12:07:23;;;;;;;0.20;0.10;;;-0.90;1.00;;;;;;5094184;28;20067;-82
2022/12/18 12:10:09;;;;;;;0.17;0.17;;;-0.80;1.00;;;;;;5093129;28;20055;-82
2022/12/18 12:12:50;;;;;;;1.33;0.95;;;-0.80;1.00;;;;;;5110053;28;20070;-82
2022/12/18 12:15:39;;;;;;;0.20;0.20;;;-0.80;1.00;;;;;;5109364;28;20043;-82
2022/12/18 12:18:34;;;;;;;3.10;0.82;;;-0.70;1.00;;;;;;5110019;28;20070;-82
2022/12/18 12:21:11;;;;;;;0.00;0.00;;;-0.70;1.00;;;;;;5092772;28;20059;-81
2022/12/18 12:23:49;;;;;;;1.60;0.73;;;-0.70;1.00;;;;;;5092008;28;20047;-82
2022/12/18 12:26:36;;;;;;;0.00;0.00;;;-0.60;1.00;;;;;;5092275;28;20039;-81
2022/12/18 12:29:26;;;;;;;0.00;0.00;;;-0.60;1.00;;;;;;5110001;28;20054;-81
2022/12/18 12:32:12;;;;;;;0.10;0.10;;;-0.60;1.00;;;;;;5092365;28;20043;-82
2022/12/18 12:34:51;;;;;;;0.00;0.00;;;-0.60;1.00;;;;;;5092480;28;20047;-82
2022/12/18 12:37:26;;;;;;;0.00;0.00;;;-0.60;1.00;;;;;;5109592;28;20054;-81
2022/12/18 12:39:54;;;;;;;0.00;0.00;;;-0.60;1.00;;;;;;5109868;28;20097;-81
2022/12/18 12:45:25;;;;;;;0.10;0.10;;;-0.60;1.00;;;;;;5097423;28;20044;-81
2022/12/18 12:47:53;;;;;;;0.22;0.22;;;-0.60;1.00;;;;;;5079235;28;20060;-81
2022/12/18 12:50:21;;;;;;;0.43;0.43;;;-0.50;1.00;;;;;;5078642;28;20052;-82
2022/12/18 12:52:56;;;;;;;1.17;0.05;;;-0.40;1.00;;;;;;5078335;28;20044;-81
2022/12/18 12:55:28;;;;;;;0.03;0.03;;;-0.50;1.00;;;;;;5094700;28;20055;-82
2022/12/18 12:58:12;;;;;;;0.00;0.00;;;-0.40;1.00;;;;;;5095457;28;20070;-82
2022/12/18 13:00:55;;;;;;;0.32;0.32;;;-0.40;1.00;;;;;;5078431;28;20106;-81
2022/12/18 13:03:24;;;;;;;0.10;0.10;;;-0.40;1.00;;;;;;5095407;28;20048;-81
2022/12/18 13:05:58;;;;;;;0.10;0.10;;;-0.40;1.00;;;;;;5095102;28;20051;-81
2022/12/18 13:08:26;;;;;;;0.00;0.00;;;-0.30;1.00;;;;;;5095246;28;20442;-81
2022/12/18 13:12:55;;;;;;;0.10;0.10;;;-0.30;1.00;;;;;;5095169;28;20499;-81
2022/12/18 13:13:55;;;;;;;0.88;0.88;;;-0.30;1.00;;;;;;5094759;28;20051;-81
2022/12/18 13:16:23;;;;;;;0.13;0.13;;;-0.30;1.00;;;;;;5094750;28;20496;-81
2022/12/18 13:19:00;;;;;;;0.25;0.25;;;-0.20;1.00;;;;;;5094920;28;20075;-85
2022/12/18 13:21:33;;;;;;;1.25;0.55;;;-0.20;99.90;;;;;;5078163;28;20098;-85